sensor_id;sensor_type;location;lat;lon;timestamp;P1;durP1;ratioP1;P2;durP2;ratioP2
65358;SDS011;52491;45.900;6.346;2024-03-29T00:03:07;2.22;;;1.10;;
65358;SDS011;52491;45.900;6.346;2024-03-29T00:06:29;4.85;;;1.67;;
65358;SDS011;52491;45.900;6.346;2024-03-29T00:09:14;2.83;;;1.30;;
65358;SDS011;52491;45.900;6.346;2024-03-29T00:11:40;1.60;;;0.93;;
65358;SDS011;52491;45.900;6.346;2024-03-29T00:14:06;2.80;;;1.17;;
65358;SDS011;52491;45.900;6.346;2024-03-29T00:16:31;2.15;;;1.38;;
65358;SDS011;52491;45.900;6.346;2024-03-29T00:18:57;2.33;;;1.35;;
65358;SDS011;52491;45.900;6.346;2024-03-29T00:21:23;2.42;;;1.08;;
65358;SDS011;52491;45.900;6.346;2024-03-29T00:23:48;3.47;;;1.60;;
65358;SDS011;52491;45.900;6.346;2024-03-29T00:26:16;2.28;;;1.10;;
65358;SDS011;52491;45.900;6.346;2024-03-29T00:28:42;2.05;;;1.30;;
65358;SDS011;52491;45.900;6.346;2024-03-29T00:31:10;2.05;;;1.15;;
65358;SDS011;52491;45.900;6.346;2024-03-29T00:33:36;1.98;;;1.35;;
65358;SDS011;52491;45.900;6.346;2024-03-29T00:36:02;1.17;;;0.93;;
65358;SDS011;52491;45.900;6.346;2024-03-29T00:38:28;1.95;;;1.00;;
65358;SDS011;52491;45.900;6.346;2024-03-29T00:40:53;1.65;;;1.05;;
65358;SDS011;52491;45.900;6.346;2024-03-29T00:43:19;2.60;;;1.10;;
65358;SDS011;52491;45.900;6.346;2024-03-29T00:45:45;1.65;;;1.08;;
65358;SDS011;52491;45.900;6.346;2024-03-29T00:48:10;2.63;;;1.30;;
65358;SDS011;52491;45.900;6.346;2024-03-29T00:50:36;1.60;;;0.95;;
65358;SDS011;52491;45.900;6.346;2024-03-29T00:53:03;2.15;;;0.98;;
65358;SDS011;52491;45.900;6.346;2024-03-29T00:55:30;1.60;;;1.05;;
65358;SDS011;52491;45.900;6.346;2024-03-29T00:57:55;0.95;;;0.70;;
65358;SDS011;52491;45.900;6.346;2024-03-29T01:00:21;2.05;;;0.80;;
65358;SDS011;52491;45.900;6.346;2024-03-29T01:02:48;1.58;;;0.98;;
65358;SDS011;52491;45.900;6.346;2024-03-29T01:05:14;1.30;;;0.82;;
65358;SDS011;52491;45.900;6.346;2024-03-29T01:07:40;1.80;;;0.60;;
65358;SDS011;52491;45.900;6.346;2024-03-29T01:10:07;1.02;;;0.93;;
65358;SDS011;52491;45.900;6.346;2024-03-29T01:12:34;0.80;;;0.75;;
65358;SDS011;52491;45.900;6.346;2024-03-29T01:15:01;1.23;;;0.75;;
65358;SDS011;52491;45.900;6.346;2024-03-29T01:17:28;1.33;;;0.95;;
65358;SDS011;52491;45.900;6.346;2024-03-29T01:19:54;1.08;;;0.80;;
65358;SDS011;52491;45.900;6.346;2024-03-29T01:22:20;1.52;;;1.00;;
65358;SDS011;52491;45.900;6.346;2024-03-29T01:24:45;1.02;;;0.75;;
65358;SDS011;52491;45.900;6.346;2024-03-29T01:27:11;0.63;;;0.52;;
65358;SDS011;52491;45.900;6.346;2024-03-29T01:29:37;2.30;;;1.02;;
65358;SDS011;52491;45.900;6.346;2024-03-29T01:32:03;2.05;;;1.00;;
65358;SDS011;52491;45.900;6.346;2024-03-29T01:34:29;1.05;;;0.88;;
65358;SDS011;52491;45.900;6.346;2024-03-29T01:36:55;2.00;;;1.00;;
65358;SDS011;52491;45.900;6.346;2024-03-29T01:39:21;1.10;;;0.60;;
65358;SDS011;52491;45.900;6.346;2024-03-29T01:41:52;1.75;;;0.90;;
65358;SDS011;52491;45.900;6.346;2024-03-29T01:44:18;1.27;;;0.77;;
65358;SDS011;52491;45.900;6.346;2024-03-29T01:46:44;1.08;;;0.75;;
65358;SDS011;52491;45.900;6.346;2024-03-29T01:49:12;2.42;;;1.45;;
65358;SDS011;52491;45.900;6.346;2024-03-29T01:51:38;0.70;;;0.50;;
65358;SDS011;52491;45.900;6.346;2024-03-29T01:54:05;1.17;;;0.88;;
65358;SDS011;52491;45.900;6.346;2024-03-29T01:56:34;1.25;;;0.93;;
65358;SDS011;52491;45.900;6.346;2024-03-29T01:59:00;0.93;;;0.55;;
65358;SDS011;52491;45.900;6.346;2024-03-29T02:01:28;0.40;;;0.40;;
65358;SDS011;52491;45.900;6.346;2024-03-29T02:03:56;1.40;;;0.70;;
65358;SDS011;52491;45.900;6.346;2024-03-29T02:06:22;1.45;;;0.75;;
65358;SDS011;52491;45.900;6.346;2024-03-29T02:08:49;3.50;;;0.95;;
65358;SDS011;52491;45.900;6.346;2024-03-29T02:11:18;0.40;;;0.40;;
65358;SDS011;52491;45.900;6.346;2024-03-29T02:13:44;1.17;;;0.52;;
65358;SDS011;52491;45.900;6.346;2024-03-29T02:16:11;1.15;;;0.88;;
65358;SDS011;52491;45.900;6.346;2024-03-29T02:18:37;1.98;;;1.05;;
65358;SDS011;52491;45.900;6.346;2024-03-29T02:21:02;1.98;;;0.77;;
65358;SDS011;52491;45.900;6.346;2024-03-29T02:23:29;0.55;;;0.50;;
65358;SDS011;52491;45.900;6.346;2024-03-29T02:25:57;2.20;;;0.68;;
65358;SDS011;52491;45.900;6.346;2024-03-29T02:28:24;1.00;;;0.65;;
65358;SDS011;52491;45.900;6.346;2024-03-29T02:30:50;0.57;;;0.57;;
65358;SDS011;52491;45.900;6.346;2024-03-29T02:33:16;1.02;;;0.60;;
65358;SDS011;52491;45.900;6.346;2024-03-29T02:35:42;1.15;;;0.73;;
65358;SDS011;52491;45.900;6.346;2024-03-29T02:38:07;0.77;;;0.65;;
65358;SDS011;52491;45.900;6.346;2024-03-29T02:40:33;1.33;;;0.50;;
65358;SDS011;52491;45.900;6.346;2024-03-29T02:42:59;1.35;;;0.60;;
65358;SDS011;52491;45.900;6.346;2024-03-29T02:45:24;1.02;;;0.55;;
65358;SDS011;52491;45.900;6.346;2024-03-29T02:47:50;0.70;;;0.55;;
65358;SDS011;52491;45.900;6.346;2024-03-29T02:50:16;0.60;;;0.50;;
65358;SDS011;52491;45.900;6.346;2024-03-29T02:52:42;0.73;;;0.50;;
65358;SDS011;52491;45.900;6.346;2024-03-29T02:55:08;0.90;;;0.57;;
65358;SDS011;52491;45.900;6.346;2024-03-29T02:57:36;0.60;;;0.60;;
65358;SDS011;52491;45.900;6.346;2024-03-29T03:00:04;1.58;;;0.82;;
65358;SDS011;52491;45.900;6.346;2024-03-29T03:02:31;0.98;;;0.75;;
65358;SDS011;52491;45.900;6.346;2024-03-29T03:04:57;0.60;;;0.47;;
65358;SDS011;52491;45.900;6.346;2024-03-29T03:07:25;1.10;;;0.50;;
65358;SDS011;52491;45.900;6.346;2024-03-29T03:09:51;0.65;;;0.50;;
65358;SDS011;52491;45.900;6.346;2024-03-29T03:12:18;0.30;;;0.30;;
65358;SDS011;52491;45.900;6.346;2024-03-29T03:14:43;0.40;;;0.40;;
65358;SDS011;52491;45.900;6.346;2024-03-29T03:17:09;0.57;;;0.50;;
65358;SDS011;52491;45.900;6.346;2024-03-29T03:19:35;0.60;;;0.60;;
65358;SDS011;52491;45.900;6.346;2024-03-29T03:22:00;0.75;;;0.40;;
65358;SDS011;52491;45.900;6.346;2024-03-29T03:24:26;0.75;;;0.50;;
65358;SDS011;52491;45.900;6.346;2024-03-29T03:26:52;1.50;;;0.52;;
65358;SDS011;52491;45.900;6.346;2024-03-29T03:29:18;0.65;;;0.52;;
65358;SDS011;52491;45.900;6.346;2024-03-29T03:31:43;0.60;;;0.40;;
65358;SDS011;52491;45.900;6.346;2024-03-29T03:34:09;0.50;;;0.50;;
65358;SDS011;52491;45.900;6.346;2024-03-29T03:36:35;0.43;;;0.30;;
65358;SDS011;52491;45.900;6.346;2024-03-29T03:39:01;2.65;;;0.50;;
65358;SDS011;52491;45.900;6.346;2024-03-29T03:41:27;1.60;;;0.55;;
65358;SDS011;52491;45.900;6.346;2024-03-29T03:43:52;0.98;;;0.45;;
65358;SDS011;52491;45.900;6.346;2024-03-29T03:46:18;1.17;;;0.50;;
65358;SDS011;52491;45.900;6.346;2024-03-29T03:48:44;0.95;;;0.70;;
65358;SDS011;52491;45.900;6.346;2024-03-29T03:51:10;1.83;;;0.40;;
65358;SDS011;52491;45.900;6.346;2024-03-29T03:53:37;0.47;;;0.47;;
65358;SDS011;52491;45.900;6.346;2024-03-29T03:56:02;0.90;;;0.52;;
65358;SDS011;52491;45.900;6.346;2024-03-29T03:58:28;1.23;;;0.30;;
65358;SDS011;52491;45.900;6.346;2024-03-29T04:00:54;1.02;;;0.60;;
65358;SDS011;52491;45.900;6.346;2024-03-29T04:03:20;0.47;;;0.30;;
65358;SDS011;52491;45.900;6.346;2024-03-29T04:05:45;0.77;;;0.68;;
65358;SDS011;52491;45.900;6.346;2024-03-29T04:08:11;0.50;;;0.50;;
65358;SDS011;52491;45.900;6.346;2024-03-29T04:10:38;0.65;;;0.40;;
65358;SDS011;52491;45.900;6.346;2024-03-29T04:13:04;0.65;;;0.55;;
65358;SDS011;52491;45.900;6.346;2024-03-29T04:15:30;0.45;;;0.32;;
65358;SDS011;52491;45.900;6.346;2024-03-29T04:17:59;0.55;;;0.50;;
65358;SDS011;52491;45.900;6.346;2024-03-29T04:20:25;0.52;;;0.43;;
65358;SDS011;52491;45.900;6.346;2024-03-29T04:22:50;0.40;;;0.30;;
65358;SDS011;52491;45.900;6.346;2024-03-29T04:25:16;0.57;;;0.57;;
65358;SDS011;52491;45.900;6.346;2024-03-29T04:27:42;0.40;;;0.30;;
65358;SDS011;52491;45.900;6.346;2024-03-29T04:30:07;0.40;;;0.38;;
65358;SDS011;52491;45.900;6.346;2024-03-29T04:32:33;0.95;;;0.50;;
65358;SDS011;52491;45.900;6.346;2024-03-29T04:35:00;1.35;;;0.75;;
65358;SDS011;52491;45.900;6.346;2024-03-29T04:37:26;0.80;;;0.65;;
65358;SDS011;52491;45.900;6.346;2024-03-29T04:39:51;1.25;;;0.40;;
65358;SDS011;52491;45.900;6.346;2024-03-29T04:42:17;0.63;;;0.40;;
65358;SDS011;52491;45.900;6.346;2024-03-29T04:44:43;0.60;;;0.60;;
65358;SDS011;52491;45.900;6.346;2024-03-29T04:47:08;1.35;;;0.30;;
65358;SDS011;52491;45.900;6.346;2024-03-29T04:49:34;0.32;;;0.30;;
65358;SDS011;52491;45.900;6.346;2024-03-29T04:52:02;0.65;;;0.50;;
65358;SDS011;52491;45.900;6.346;2024-03-29T04:54:29;0.88;;;0.57;;
65358;SDS011;52491;45.900;6.346;2024-03-29T04:56:55;0.28;;;0.28;;
65358;SDS011;52491;45.900;6.346;2024-03-29T04:59:21;1.48;;;0.60;;
65358;SDS011;52491;45.900;6.346;2024-03-29T05:01:47;0.50;;;0.50;;
65358;SDS011;52491;45.900;6.346;2024-03-29T05:04:16;0.50;;;0.50;;
65358;SDS011;52491;45.900;6.346;2024-03-29T05:06:44;0.52;;;0.40;;
65358;SDS011;52491;45.900;6.346;2024-03-29T05:09:11;1.45;;;0.60;;
65358;SDS011;52491;45.900;6.346;2024-03-29T05:11:37;0.73;;;0.50;;
65358;SDS011;52491;45.900;6.346;2024-03-29T05:14:03;3.35;;;0.60;;
65358;SDS011;52491;45.900;6.346;2024-03-29T05:16:29;6.50;;;0.70;;
65358;SDS011;52491;45.900;6.346;2024-03-29T05:18:55;0.82;;;0.43;;
65358;SDS011;52491;45.900;6.346;2024-03-29T05:21:21;1.13;;;0.50;;
65358;SDS011;52491;45.900;6.346;2024-03-29T05:23:46;3.83;;;0.70;;
65358;SDS011;52491;45.900;6.346;2024-03-29T05:26:12;2.88;;;0.40;;
65358;SDS011;52491;45.900;6.346;2024-03-29T05:28:38;1.10;;;0.32;;
65358;SDS011;52491;45.900;6.346;2024-03-29T05:31:11;0.68;;;0.30;;
65358;SDS011;52491;45.900;6.346;2024-03-29T05:33:39;4.70;;;0.40;;
65358;SDS011;52491;45.900;6.346;2024-03-29T05:36:07;2.28;;;0.43;;
65358;SDS011;52491;45.900;6.346;2024-03-29T05:38:36;0.68;;;0.57;;
65358;SDS011;52491;45.900;6.346;2024-03-29T05:41:03;2.83;;;0.52;;
65358;SDS011;52491;45.900;6.346;2024-03-29T05:43:29;2.40;;;0.77;;
65358;SDS011;52491;45.900;6.346;2024-03-29T05:45:54;3.08;;;0.63;;
65358;SDS011;52491;45.900;6.346;2024-03-29T05:48:20;2.85;;;0.70;;
65358;SDS011;52491;45.900;6.346;2024-03-29T05:50:54;5.38;;;1.02;;
65358;SDS011;52491;45.900;6.346;2024-03-29T05:53:33;10.25;;;0.90;;
65358;SDS011;52491;45.900;6.346;2024-03-29T05:55:59;4.47;;;0.50;;
65358;SDS011;52491;45.900;6.346;2024-03-29T05:58:30;2.53;;;0.73;;
65358;SDS011;52491;45.900;6.346;2024-03-29T06:01:10;5.10;;;0.70;;
65358;SDS011;52491;45.900;6.346;2024-03-29T06:03:36;3.80;;;0.65;;
65358;SDS011;52491;45.900;6.346;2024-03-29T06:06:01;2.58;;;0.50;;
65358;SDS011;52491;45.900;6.346;2024-03-29T06:08:27;1.90;;;0.30;;
65358;SDS011;52491;45.900;6.346;2024-03-29T06:10:53;2.72;;;0.55;;
65358;SDS011;52491;45.900;6.346;2024-03-29T06:13:19;13.88;;;0.88;;
65358;SDS011;52491;45.900;6.346;2024-03-29T06:15:45;2.65;;;0.70;;
65358;SDS011;52491;45.900;6.346;2024-03-29T06:18:12;7.57;;;0.60;;
65358;SDS011;52491;45.900;6.346;2024-03-29T06:20:41;8.77;;;0.40;;
65358;SDS011;52491;45.900;6.346;2024-03-29T06:23:06;2.15;;;0.73;;
65358;SDS011;52491;45.900;6.346;2024-03-29T06:25:32;1.80;;;0.52;;
65358;SDS011;52491;45.900;6.346;2024-03-29T06:27:58;3.42;;;0.98;;
65358;SDS011;52491;45.900;6.346;2024-03-29T06:30:25;1.13;;;0.40;;
65358;SDS011;52491;45.900;6.346;2024-03-29T06:32:50;14.98;;;1.48;;
65358;SDS011;52491;45.900;6.346;2024-03-29T06:35:16;1.38;;;0.50;;
65358;SDS011;52491;45.900;6.346;2024-03-29T06:37:42;2.70;;;0.63;;
65358;SDS011;52491;45.900;6.346;2024-03-29T06:40:09;3.88;;;0.60;;
65358;SDS011;52491;45.900;6.346;2024-03-29T06:42:36;6.75;;;1.65;;
65358;SDS011;52491;45.900;6.346;2024-03-29T06:45:02;4.00;;;0.50;;
65358;SDS011;52491;45.900;6.346;2024-03-29T06:47:30;6.05;;;0.57;;
65358;SDS011;52491;45.900;6.346;2024-03-29T06:49:56;3.08;;;0.38;;
65358;SDS011;52491;45.900;6.346;2024-03-29T06:52:22;3.78;;;0.60;;
65358;SDS011;52491;45.900;6.346;2024-03-29T06:54:48;3.97;;;1.15;;
65358;SDS011;52491;45.900;6.346;2024-03-29T06:57:13;5.43;;;0.70;;
65358;SDS011;52491;45.900;6.346;2024-03-29T06:59:42;10.20;;;1.02;;
65358;SDS011;52491;45.900;6.346;2024-03-29T07:02:08;2.35;;;0.40;;
65358;SDS011;52491;45.900;6.346;2024-03-29T07:04:35;1.67;;;0.50;;
65358;SDS011;52491;45.900;6.346;2024-03-29T07:07:00;1.08;;;0.60;;
65358;SDS011;52491;45.900;6.346;2024-03-29T07:09:26;1.30;;;0.77;;
65358;SDS011;52491;45.900;6.346;2024-03-29T07:11:52;2.13;;;0.43;;
65358;SDS011;52491;45.900;6.346;2024-03-29T07:14:18;2.10;;;0.50;;
65358;SDS011;52491;45.900;6.346;2024-03-29T07:16:44;2.67;;;0.68;;
65358;SDS011;52491;45.900;6.346;2024-03-29T07:19:11;3.05;;;0.43;;
65358;SDS011;52491;45.900;6.346;2024-03-29T07:21:38;1.48;;;0.55;;
65358;SDS011;52491;45.900;6.346;2024-03-29T07:24:05;0.57;;;0.50;;
65358;SDS011;52491;45.900;6.346;2024-03-29T07:26:31;0.30;;;0.30;;
65358;SDS011;52491;45.900;6.346;2024-03-29T07:28:57;0.70;;;0.57;;
65358;SDS011;52491;45.900;6.346;2024-03-29T07:31:23;0.30;;;0.30;;
65358;SDS011;52491;45.900;6.346;2024-03-29T07:33:48;1.20;;;0.57;;
65358;SDS011;52491;45.900;6.346;2024-03-29T07:36:14;0.68;;;0.40;;
65358;SDS011;52491;45.900;6.346;2024-03-29T07:38:41;3.95;;;0.32;;
65358;SDS011;52491;45.900;6.346;2024-03-29T07:41:08;0.32;;;0.28;;
65358;SDS011;52491;45.900;6.346;2024-03-29T07:46:02;3.17;;;0.40;;
65358;SDS011;52491;45.900;6.346;2024-03-29T07:48:28;2.28;;;0.73;;
65358;SDS011;52491;45.900;6.346;2024-03-29T07:50:54;1.05;;;0.40;;
65358;SDS011;52491;45.900;6.346;2024-03-29T07:53:19;2.03;;;0.57;;
65358;SDS011;52491;45.900;6.346;2024-03-29T07:55:45;0.22;;;0.22;;
65358;SDS011;52491;45.900;6.346;2024-03-29T07:58:11;1.85;;;0.47;;
65358;SDS011;52491;45.900;6.346;2024-03-29T08:03:06;1.23;;;0.50;;
65358;SDS011;52491;45.900;6.346;2024-03-29T08:05:32;0.80;;;0.40;;
65358;SDS011;52491;45.900;6.346;2024-03-29T08:07:58;2.00;;;0.22;;
65358;SDS011;52491;45.900;6.346;2024-03-29T08:10:24;1.17;;;0.30;;
65358;SDS011;52491;45.900;6.346;2024-03-29T08:12:50;1.25;;;0.30;;
65358;SDS011;52491;45.900;6.346;2024-03-29T08:15:16;1.00;;;0.47;;
65358;SDS011;52491;45.900;6.346;2024-03-29T08:17:43;0.20;;;0.20;;
65358;SDS011;52491;45.900;6.346;2024-03-29T08:20:10;0.30;;;0.20;;
65358;SDS011;52491;45.900;6.346;2024-03-29T08:22:36;2.65;;;0.43;;
65358;SDS011;52491;45.900;6.346;2024-03-29T08:25:02;0.85;;;0.20;;
65358;SDS011;52491;45.900;6.346;2024-03-29T08:27:27;0.50;;;0.32;;
65358;SDS011;52491;45.900;6.346;2024-03-29T08:29:53;3.92;;;1.02;;
65358;SDS011;52491;45.900;6.346;2024-03-29T08:32:19;0.60;;;0.30;;
65358;SDS011;52491;45.900;6.346;2024-03-29T08:34:45;1.15;;;0.30;;
65358;SDS011;52491;45.900;6.346;2024-03-29T08:37:11;0.32;;;0.20;;
65358;SDS011;52491;45.900;6.346;2024-03-29T08:39:37;0.20;;;0.20;;
65358;SDS011;52491;45.900;6.346;2024-03-29T08:42:03;0.30;;;0.30;;
65358;SDS011;52491;45.900;6.346;2024-03-29T08:44:31;0.55;;;0.30;;
65358;SDS011;52491;45.900;6.346;2024-03-29T08:46:57;1.02;;;0.40;;
65358;SDS011;52491;45.900;6.346;2024-03-29T08:49:24;0.30;;;0.30;;
65358;SDS011;52491;45.900;6.346;2024-03-29T08:51:50;0.77;;;0.30;;
65358;SDS011;52491;45.900;6.346;2024-03-29T08:54:16;1.00;;;0.28;;
65358;SDS011;52491;45.900;6.346;2024-03-29T08:56:41;0.85;;;0.40;;
65358;SDS011;52491;45.900;6.346;2024-03-29T08:59:07;0.70;;;0.20;;
65358;SDS011;52491;45.900;6.346;2024-03-29T09:04:01;0.15;;;0.15;;
65358;SDS011;52491;45.900;6.346;2024-03-29T09:06:29;0.30;;;0.28;;
65358;SDS011;52491;45.900;6.346;2024-03-29T09:08:55;0.20;;;0.20;;
65358;SDS011;52491;45.900;6.346;2024-03-29T09:11:21;0.50;;;0.30;;
65358;SDS011;52491;45.900;6.346;2024-03-29T09:13:46;1.30;;;0.50;;
65358;SDS011;52491;45.900;6.346;2024-03-29T09:16:12;0.43;;;0.20;;
65358;SDS011;52491;45.900;6.346;2024-03-29T09:18:38;0.25;;;0.25;;
65358;SDS011;52491;45.900;6.346;2024-03-29T09:21:04;0.88;;;0.60;;
65358;SDS011;52491;45.900;6.346;2024-03-29T09:23:29;0.30;;;0.20;;
65358;SDS011;52491;45.900;6.346;2024-03-29T09:25:56;0.38;;;0.25;;
65358;SDS011;52491;45.900;6.346;2024-03-29T09:28:22;0.20;;;0.20;;
65358;SDS011;52491;45.900;6.346;2024-03-29T09:30:49;0.20;;;0.20;;
65358;SDS011;52491;45.900;6.346;2024-03-29T09:33:14;1.10;;;0.30;;
65358;SDS011;52491;45.900;6.346;2024-03-29T09:35:41;0.63;;;0.63;;
65358;SDS011;52491;45.900;6.346;2024-03-29T09:38:06;0.20;;;0.20;;
65358;SDS011;52491;45.900;6.346;2024-03-29T09:40:32;0.40;;;0.10;;
65358;SDS011;52491;45.900;6.346;2024-03-29T09:43:00;1.95;;;0.40;;
65358;SDS011;52491;45.900;6.346;2024-03-29T09:45:27;0.20;;;0.20;;
65358;SDS011;52491;45.900;6.346;2024-03-29T09:47:58;0.17;;;0.17;;
65358;SDS011;52491;45.900;6.346;2024-03-29T09:50:27;0.25;;;0.25;;
65358;SDS011;52491;45.900;6.346;2024-03-29T09:52:52;0.22;;;0.22;;
65358;SDS011;52491;45.900;6.346;2024-03-29T09:55:19;0.10;;;0.10;;
65358;SDS011;52491;45.900;6.346;2024-03-29T09:57:46;0.40;;;0.40;;
65358;SDS011;52491;45.900;6.346;2024-03-29T10:00:12;3.67;;;0.60;;
65358;SDS011;52491;45.900;6.346;2024-03-29T10:02:38;0.52;;;0.30;;
65358;SDS011;52491;45.900;6.346;2024-03-29T10:05:06;1.23;;;0.43;;
65358;SDS011;52491;45.900;6.346;2024-03-29T10:07:33;0.70;;;0.40;;
65358;SDS011;52491;45.900;6.346;2024-03-29T10:10:01;5.22;;;0.30;;
65358;SDS011;52491;45.900;6.346;2024-03-29T10:12:28;0.40;;;0.30;;
65358;SDS011;52491;45.900;6.346;2024-03-29T10:14:55;0.88;;;0.40;;
65358;SDS011;52491;45.900;6.346;2024-03-29T10:17:30;0.35;;;0.30;;
65358;SDS011;52491;45.900;6.346;2024-03-29T10:22:23;0.88;;;0.43;;
65358;SDS011;52491;45.900;6.346;2024-03-29T10:24:49;0.65;;;0.30;;
65358;SDS011;52491;45.900;6.346;2024-03-29T10:27:15;0.82;;;0.40;;
65358;SDS011;52491;45.900;6.346;2024-03-29T10:29:41;0.68;;;0.40;;
65358;SDS011;52491;45.900;6.346;2024-03-29T10:32:06;0.65;;;0.50;;
65358;SDS011;52491;45.900;6.346;2024-03-29T10:34:32;0.50;;;0.50;;
65358;SDS011;52491;45.900;6.346;2024-03-29T10:37:01;1.02;;;0.50;;
65358;SDS011;52491;45.900;6.346;2024-03-29T10:39:29;1.40;;;0.40;;
65358;SDS011;52491;45.900;6.346;2024-03-29T10:41:57;1.48;;;0.50;;
65358;SDS011;52491;45.900;6.346;2024-03-29T10:44:24;0.73;;;0.20;;
65358;SDS011;52491;45.900;6.346;2024-03-29T10:46:52;0.22;;;0.22;;
65358;SDS011;52491;45.900;6.346;2024-03-29T10:49:18;0.73;;;0.40;;
65358;SDS011;52491;45.900;6.346;2024-03-29T10:51:47;0.32;;;0.30;;
65358;SDS011;52491;45.900;6.346;2024-03-29T10:54:13;0.20;;;0.10;;
65358;SDS011;52491;45.900;6.346;2024-03-29T10:56:40;0.50;;;0.50;;
65358;SDS011;52491;45.900;6.346;2024-03-29T10:59:12;0.40;;;0.25;;
65358;SDS011;52491;45.900;6.346;2024-03-29T11:01:44;0.57;;;0.35;;
65358;SDS011;52491;45.900;6.346;2024-03-29T11:04:13;0.30;;;0.30;;
65358;SDS011;52491;45.900;6.346;2024-03-29T11:06:46;0.68;;;0.30;;
65358;SDS011;52491;45.900;6.346;2024-03-29T11:09:15;2.33;;;0.30;;
65358;SDS011;52491;45.900;6.346;2024-03-29T11:11:43;0.90;;;0.60;;
65358;SDS011;52491;45.900;6.346;2024-03-29T11:14:13;0.30;;;0.30;;
65358;SDS011;52491;45.900;6.346;2024-03-29T11:16:43;0.32;;;0.28;;
65358;SDS011;52491;45.900;6.346;2024-03-29T11:19:12;2.20;;;0.40;;
65358;SDS011;52491;45.900;6.346;2024-03-29T11:21:38;0.90;;;0.47;;
65358;SDS011;52491;45.900;6.346;2024-03-29T11:24:07;0.22;;;0.20;;
65358;SDS011;52491;45.900;6.346;2024-03-29T11:26:34;0.20;;;0.20;;
65358;SDS011;52491;45.900;6.346;2024-03-29T11:29:00;0.52;;;0.40;;
65358;SDS011;52491;45.900;6.346;2024-03-29T11:31:27;0.30;;;0.30;;
65358;SDS011;52491;45.900;6.346;2024-03-29T11:33:56;0.20;;;0.20;;
65358;SDS011;52491;45.900;6.346;2024-03-29T11:36:23;0.50;;;0.45;;
65358;SDS011;52491;45.900;6.346;2024-03-29T11:38:52;0.38;;;0.38;;
65358;SDS011;52491;45.900;6.346;2024-03-29T11:41:19;0.30;;;0.30;;
65358;SDS011;52491;45.900;6.346;2024-03-29T11:43:48;1.55;;;0.20;;
65358;SDS011;52491;45.900;6.346;2024-03-29T11:46:16;0.82;;;0.20;;
65358;SDS011;52491;45.900;6.346;2024-03-29T11:48:43;0.40;;;0.40;;
65358;SDS011;52491;45.900;6.346;2024-03-29T11:51:12;0.28;;;0.28;;
65358;SDS011;52491;45.900;6.346;2024-03-29T11:53:41;0.40;;;0.30;;
65358;SDS011;52491;45.900;6.346;2024-03-29T11:56:07;0.55;;;0.30;;
65358;SDS011;52491;45.900;6.346;2024-03-29T11:58:33;2.72;;;0.43;;
65358;SDS011;52491;45.900;6.346;2024-03-29T12:01:00;3.50;;;0.30;;
65358;SDS011;52491;45.900;6.346;2024-03-29T12:03:28;0.28;;;0.28;;
65358;SDS011;52491;45.900;6.346;2024-03-29T12:05:55;0.28;;;0.28;;
65358;SDS011;52491;45.900;6.346;2024-03-29T12:08:22;1.05;;;0.30;;
65358;SDS011;52491;45.900;6.346;2024-03-29T12:10:48;1.73;;;0.50;;
65358;SDS011;52491;45.900;6.346;2024-03-29T12:13:15;0.45;;;0.40;;
65358;SDS011;52491;45.900;6.346;2024-03-29T12:15:42;3.00;;;0.35;;
65358;SDS011;52491;45.900;6.346;2024-03-29T12:18:08;0.20;;;0.20;;
65358;SDS011;52491;45.900;6.346;2024-03-29T12:20:35;0.30;;;0.30;;
65358;SDS011;52491;45.900;6.346;2024-03-29T12:23:02;0.40;;;0.30;;
65358;SDS011;52491;45.900;6.346;2024-03-29T12:25:29;1.90;;;0.50;;
65358;SDS011;52491;45.900;6.346;2024-03-29T12:27:57;0.77;;;0.43;;
65358;SDS011;52491;45.900;6.346;2024-03-29T12:30:24;1.63;;;0.40;;
65358;SDS011;52491;45.900;6.346;2024-03-29T12:35:33;0.25;;;0.25;;
65358;SDS011;52491;45.900;6.346;2024-03-29T12:37:59;0.98;;;0.40;;
65358;SDS011;52491;45.900;6.346;2024-03-29T12:40:27;0.70;;;0.40;;
65358;SDS011;52491;45.900;6.346;2024-03-29T12:42:55;1.85;;;0.38;;
65358;SDS011;52491;45.900;6.346;2024-03-29T12:45:23;0.47;;;0.25;;
65358;SDS011;52491;45.900;6.346;2024-03-29T12:47:51;2.60;;;0.70;;
65358;SDS011;52491;45.900;6.346;2024-03-29T12:52:49;0.98;;;0.30;;
65358;SDS011;52491;45.900;6.346;2024-03-29T12:55:18;1.85;;;0.40;;
65358;SDS011;52491;45.900;6.346;2024-03-29T12:57:44;1.88;;;0.40;;
65358;SDS011;52491;45.900;6.346;2024-03-29T13:00:10;0.98;;;0.38;;
65358;SDS011;52491;45.900;6.346;2024-03-29T13:02:37;2.35;;;0.47;;
65358;SDS011;52491;45.900;6.346;2024-03-29T13:05:03;0.80;;;0.43;;
65358;SDS011;52491;45.900;6.346;2024-03-29T13:07:29;1.33;;;0.70;;
65358;SDS011;52491;45.900;6.346;2024-03-29T13:09:56;2.95;;;0.47;;
65358;SDS011;52491;45.900;6.346;2024-03-29T13:12:24;0.52;;;0.47;;
65358;SDS011;52491;45.900;6.346;2024-03-29T13:14:51;1.52;;;0.50;;
65358;SDS011;52491;45.900;6.346;2024-03-29T13:17:17;0.93;;;0.30;;
65358;SDS011;52491;45.900;6.346;2024-03-29T13:19:43;1.48;;;0.45;;
65358;SDS011;52491;45.900;6.346;2024-03-29T13:22:09;1.48;;;0.40;;
65358;SDS011;52491;45.900;6.346;2024-03-29T13:24:34;1.10;;;0.40;;
65358;SDS011;52491;45.900;6.346;2024-03-29T13:27:00;2.83;;;0.43;;
65358;SDS011;52491;45.900;6.346;2024-03-29T13:29:26;1.65;;;0.75;;
65358;SDS011;52491;45.900;6.346;2024-03-29T13:31:52;4.43;;;0.68;;
65358;SDS011;52491;45.900;6.346;2024-03-29T13:34:17;1.13;;;0.55;;
65358;SDS011;52491;45.900;6.346;2024-03-29T13:36:43;1.90;;;0.80;;
65358;SDS011;52491;45.900;6.346;2024-03-29T13:39:10;4.07;;;1.02;;
65358;SDS011;52491;45.900;6.346;2024-03-29T13:41:38;1.83;;;0.50;;
65358;SDS011;52491;45.900;6.346;2024-03-29T13:44:05;3.45;;;0.98;;
65358;SDS011;52491;45.900;6.346;2024-03-29T13:46:32;1.85;;;0.80;;
65358;SDS011;52491;45.900;6.346;2024-03-29T13:48:59;3.22;;;1.02;;
65358;SDS011;52491;45.900;6.346;2024-03-29T13:51:25;3.35;;;0.95;;
65358;SDS011;52491;45.900;6.346;2024-03-29T13:53:51;2.88;;;0.80;;
65358;SDS011;52491;45.900;6.346;2024-03-29T13:56:17;3.47;;;1.05;;
65358;SDS011;52491;45.900;6.346;2024-03-29T13:58:42;6.45;;;1.10;;
65358;SDS011;52491;45.900;6.346;2024-03-29T14:01:08;4.43;;;0.60;;
65358;SDS011;52491;45.900;6.346;2024-03-29T14:03:34;2.30;;;0.50;;
65358;SDS011;52491;45.900;6.346;2024-03-29T14:05:59;2.13;;;0.85;;
65358;SDS011;52491;45.900;6.346;2024-03-29T14:08:25;6.25;;;1.13;;
65358;SDS011;52491;45.900;6.346;2024-03-29T14:10:54;3.30;;;0.50;;
65358;SDS011;52491;45.900;6.346;2024-03-29T14:13:25;6.68;;;1.35;;
65358;SDS011;52491;45.900;6.346;2024-03-29T14:15:51;3.67;;;0.90;;
65358;SDS011;52491;45.900;6.346;2024-03-29T14:18:16;3.90;;;1.58;;
65358;SDS011;52491;45.900;6.346;2024-03-29T14:20:42;3.55;;;1.27;;
65358;SDS011;52491;45.900;6.346;2024-03-29T14:23:08;4.25;;;1.27;;
65358;SDS011;52491;45.900;6.346;2024-03-29T14:25:37;2.38;;;0.70;;
65358;SDS011;52491;45.900;6.346;2024-03-29T14:28:03;4.07;;;1.30;;
65358;SDS011;52491;45.900;6.346;2024-03-29T14:30:29;5.35;;;1.10;;
65358;SDS011;52491;45.900;6.346;2024-03-29T14:32:55;4.70;;;1.52;;
65358;SDS011;52491;45.900;6.346;2024-03-29T14:35:21;10.13;;;1.80;;
65358;SDS011;52491;45.900;6.346;2024-03-29T14:37:48;3.30;;;1.08;;
65358;SDS011;52491;45.900;6.346;2024-03-29T14:40:13;3.88;;;1.48;;
65358;SDS011;52491;45.900;6.346;2024-03-29T14:42:41;5.15;;;1.58;;
65358;SDS011;52491;45.900;6.346;2024-03-29T14:45:07;7.60;;;1.83;;
65358;SDS011;52491;45.900;6.346;2024-03-29T14:47:36;3.92;;;2.00;;
65358;SDS011;52491;45.900;6.346;2024-03-29T14:50:03;4.72;;;1.25;;
65358;SDS011;52491;45.900;6.346;2024-03-29T14:52:33;3.47;;;1.17;;
65358;SDS011;52491;45.900;6.346;2024-03-29T14:54:59;6.50;;;1.35;;
65358;SDS011;52491;45.900;6.346;2024-03-29T14:57:25;8.23;;;1.35;;
65358;SDS011;52491;45.900;6.346;2024-03-29T14:59:51;6.18;;;2.60;;
65358;SDS011;52491;45.900;6.346;2024-03-29T15:02:16;7.35;;;1.92;;